createdAt,value
2022-11-05T06:55:47.913Z,100256.41
2022-11-05T06:58:50.416Z,100275.25
2022-11-05T07:01:53.030Z,100284.72
2022-11-05T07:04:55.760Z,100306.25
2022-11-05T07:15:10.735Z,100326.66
2022-11-05T07:18:13.421Z,100336.44
2022-11-05T07:21:15.937Z,100350.09
2022-11-05T07:24:18.395Z,100363.09
2022-11-05T07:27:20.898Z,100380.75
2022-11-05T07:30:24.793Z,100389.34
2022-11-05T07:33:30.075Z,100392.00
2022-11-05T07:36:34.883Z,100396.66
2022-11-05T07:39:37.345Z,100401.16
2022-11-05T07:42:43.297Z,100414.44
2022-11-05T07:45:47.776Z,100414.28
2022-11-05T07:48:50.311Z,100416.44
2022-11-05T07:51:53.631Z,100416.78
2022-11-05T07:54:56.088Z,100416.69
2022-11-05T07:57:58.723Z,100421.19
2022-11-05T08:01:02.641Z,100418.94
2022-11-05T08:04:05.608Z,100407.75
2022-11-05T08:07:08.081Z,100411.25
2022-11-05T08:10:10.747Z,100407.13
2022-11-05T08:13:15.065Z,100413.88
2022-11-05T08:16:19.016Z,100416.59
2022-11-05T08:19:21.552Z,100424.91
2022-11-05T08:22:24.046Z,100428.84
2022-11-05T08:25:26.884Z,100432.34
2022-11-05T08:28:29.666Z,100435.06
2022-11-05T08:31:33.685Z,100436.63
2022-11-05T08:34:36.167Z,100433.28
2022-11-05T08:37:38.653Z,100437.03
2022-11-05T08:40:42.585Z,100440.03
2022-11-05T08:43:45.087Z,100442.75
2022-11-05T08:46:49.381Z,100438.44
2022-11-05T08:49:51.873Z,100440.13
2022-11-05T08:52:54.475Z,100439.38
2022-11-05T08:55:59.132Z,100447.19
2022-11-05T08:59:01.822Z,100449.88
2022-11-05T09:02:05.815Z,100452.53
2022-11-05T09:05:09.352Z,100464.91
2022-11-05T09:08:13.997Z,100464.25
2022-11-05T09:11:18.027Z,100469.81
2022-11-05T09:14:20.504Z,100476.75
2022-11-05T09:17:24.402Z,100478.69
2022-11-05T09:20:26.877Z,100486.97
2022-11-05T09:23:29.345Z,100490.47
2022-11-05T09:26:31.820Z,100502.78
2022-11-05T09:29:34.318Z,100498.66
2022-11-05T09:32:38.187Z,100497.56
2022-11-05T09:35:41.547Z,100508.53
2022-11-05T09:38:44.099Z,100511.56
2022-11-05T09:41:48.717Z,100518.72
2022-11-05T09:44:55.673Z,100519.00
2022-11-05T09:48:03.863Z,100526.38
2022-11-05T09:51:07.395Z,100533.78
2022-11-05T09:54:12.838Z,100530.22
2022-11-05T09:57:19.817Z,100532.25
2022-11-05T10:00:22.800Z,100537.31
2022-11-05T10:03:29.806Z,100542.84
2022-11-05T10:06:32.535Z,100539.34
2022-11-05T10:09:40.428Z,100544.94
2022-11-05T10:12:46.630Z,100549.25
2022-11-05T10:15:56.548Z,100557.38
2022-11-05T10:19:07.274Z,100561.47
2022-11-05T10:22:12.005Z,100560.31
2022-11-05T10:25:19.195Z,100561.91
2022-11-05T10:28:24.278Z,100553.06
2022-11-05T10:31:35.204Z,100554.94
2022-11-05T10:34:40.598Z,100556.72
2022-11-05T10:37:43.171Z,100558.06
2022-11-05T10:40:59.393Z,100561.22
2022-11-05T10:44:18.657Z,100567.88
2022-11-05T10:47:39.456Z,100559.25
2022-11-05T10:50:45.102Z,100570.22
2022-11-05T10:54:00.359Z,100573.09
2022-11-05T10:57:31.826Z,100572.25
2022-11-05T11:00:34.472Z,100579.81
2022-11-05T11:03:42.688Z,100582.97
2022-11-05T11:06:50.342Z,100579.59
2022-11-05T11:09:53.634Z,100583.69
2022-11-05T11:12:58.481Z,100587.91
2022-11-05T11:16:15.929Z,100589.63
2022-11-05T11:19:27.749Z,100582.75
2022-11-05T11:22:30.414Z,100577.25
2022-11-05T11:25:41.452Z,100581.31
2022-11-05T11:28:49.279Z,100581.88
2022-11-05T11:31:55.949Z,100585.91
2022-11-05T11:34:58.707Z,100584.44
2022-11-05T11:38:02.161Z,100580.41
2022-11-05T11:41:20.298Z,100582.06
2022-11-05T11:44:27.363Z,100579.59
2022-11-05T11:47:30.915Z,100574.59
2022-11-05T11:50:37.994Z,100582.44
2022-11-05T11:53:41.846Z,100569.00
2022-11-05T11:56:45.966Z,100581.81
2022-11-05T12:03:26.441Z,100574.44
2022-11-05T12:06:37.105Z,100577.47
2022-11-05T12:09:55.921Z,100572.13
2022-11-05T12:13:21.446Z,100572.69
2022-11-05T12:16:37.534Z,100581.53
2022-11-05T12:19:55.418Z,100581.94
2022-11-05T12:23:16.269Z,100587.81
2022-11-05T12:26:29.118Z,100586.63
2022-11-05T12:29:42.833Z,100584.16
2022-11-05T12:33:19.868Z,100592.16
2022-11-05T12:36:33.109Z,100588.78
2022-11-05T12:39:47.202Z,100593.13
2022-11-05T12:43:01.556Z,100591.75
2022-11-05T12:46:15.203Z,100585.47
2022-11-05T12:49:35.557Z,100588.03
2022-11-05T12:53:09.338Z,100592.03
2022-11-05T12:56:19.752Z,100584.41
2022-11-05T12:59:27.941Z,100587.47
2022-11-05T13:02:36.207Z,100594.44
2022-11-05T13:05:43.037Z,100601.31
2022-11-05T13:08:53.044Z,100598.78
2022-11-05T13:11:58.510Z,100595.28
2022-11-05T13:15:06.245Z,100600.63
2022-11-05T13:18:14.304Z,100592.53
2022-11-05T13:21:20.938Z,100599.50
2022-11-05T13:24:27.141Z,100599.09
2022-11-05T13:27:44.673Z,100606.50
2022-11-05T13:30:51.647Z,100598.03
2022-11-05T13:33:55.538Z,100604.97
2022-11-05T13:37:21.243Z,100601.03
2022-11-05T13:40:36.282Z,100604.53
2022-11-05T13:43:54.382Z,100605.03
2022-11-05T13:47:15.938Z,100608.75
2022-11-05T13:50:43.141Z,100617.53
2022-11-05T13:54:07.864Z,100624.44
2022-11-05T13:57:26.777Z,100627.25
2022-11-05T14:00:33.491Z,100626.59
2022-11-05T14:03:36.801Z,100628.06
2022-11-05T14:06:39.386Z,100626.25
2022-11-05T14:09:44.657Z,100631.91
2022-11-05T14:12:51.009Z,100633.81
2022-11-05T14:15:57.673Z,100629.47
2022-11-05T14:19:33.545Z,100628.84
2022-11-05T14:22:41.202Z,100636.75
2022-11-05T14:26:13.990Z,100634.75
2022-11-05T14:29:24.914Z,100640.53
2022-11-05T14:32:42.326Z,100644.47
2022-11-05T14:35:44.837Z,100646.56
2022-11-05T14:38:50.110Z,100640.97
2022-11-05T14:41:59.650Z,100637.41
2022-11-05T14:45:08.826Z,100659.22
2022-11-05T14:48:29.010Z,100654.38
2022-11-05T14:51:36.802Z,100655.50
2022-11-05T14:54:45.042Z,100656.78
2022-11-05T14:58:32.489Z,100661.22
2022-11-05T15:01:55.784Z,100666.91
2022-11-05T15:05:38.509Z,100667.69
2022-11-05T15:08:58.875Z,100671.22
2022-11-05T15:12:14.827Z,100674.94
2022-11-05T15:15:23.031Z,100666.00
2022-11-05T15:18:31.016Z,100665.78
2022-11-05T15:21:37.514Z,100662.38
2022-11-05T15:24:43.244Z,100667.97
2022-11-05T15:27:56.109Z,100661.06
2022-11-05T15:31:02.328Z,100665.84
2022-11-05T15:34:18.407Z,100668.16
2022-11-05T15:37:23.395Z,100675.16
2022-11-05T15:40:28.018Z,100677.50
2022-11-05T15:43:31.051Z,100680.88
2022-11-05T15:46:34.858Z,100682.13
2022-11-05T15:49:37.630Z,100684.19
2022-11-05T15:52:49.908Z,100682.66
2022-11-05T15:55:56.820Z,100685.50
2022-11-05T15:59:02.552Z,100691.44
2022-11-05T16:02:24.609Z,100686.66
2022-11-05T16:05:28.101Z,100687.41
2022-11-05T16:08:31.596Z,100687.94
2022-11-05T16:11:34.121Z,100686.72
2022-11-05T16:14:36.631Z,100683.94
2022-11-05T16:17:50.917Z,100684.22
2022-11-05T16:21:08.119Z,100686.69
2022-11-05T16:24:29.090Z,100686.63
2022-11-05T16:27:31.914Z,100678.66
2022-11-05T16:30:34.448Z,100681.78
2022-11-05T16:33:44.382Z,100678.59
2022-11-05T16:36:46.879Z,100689.50
2022-11-05T16:39:49.493Z,100692.72
2022-11-05T16:42:53.795Z,100686.44
2022-11-05T16:45:58.909Z,100699.38
2022-11-05T16:49:02.703Z,100696.38
2022-11-05T16:52:06.675Z,100698.59
2022-11-05T16:55:09.822Z,100691.78
2022-11-05T16:58:20.409Z,100699.22
2022-11-05T17:01:24.432Z,100706.94
2022-11-05T17:04:28.287Z,100702.16
2022-11-05T17:07:30.754Z,100707.97
2022-11-05T17:10:33.251Z,100711.44
2022-11-05T17:13:35.706Z,100716.31
2022-11-05T17:16:39.099Z,100718.44
2022-11-05T17:19:42.925Z,100719.34
2022-11-05T17:22:45.394Z,100722.22
2022-11-05T17:25:49.846Z,100719.91
2022-11-05T17:28:52.304Z,100721.91
2022-11-05T17:31:54.965Z,100735.09
2022-11-05T17:34:58.738Z,100735.88
2022-11-05T17:38:01.208Z,100739.63
2022-11-05T17:41:11.096Z,100742.50
2022-11-05T17:44:13.557Z,100750.25
2022-11-05T17:47:16.038Z,100749.19
2022-11-05T17:50:19.897Z,100756.69
2022-11-05T17:53:22.412Z,100758.34
2022-11-05T17:56:34.101Z,100754.00
2022-11-05T17:59:37.340Z,100756.44
2022-11-05T18:02:39.991Z,100763.69
2022-11-05T18:05:44.052Z,100766.41
2022-11-05T18:08:46.521Z,100772.53
2022-11-05T18:11:49.209Z,100767.69
2022-11-05T18:14:51.671Z,100769.94
2022-11-05T18:17:54.193Z,100771.09
2022-11-05T18:20:59.498Z,100769.31
2022-11-05T18:24:04.499Z,100765.19
2022-11-05T18:27:06.969Z,100763.09
2022-11-05T18:30:11.564Z,100759.56
2022-11-05T18:33:14.308Z,100756.09
2022-11-05T18:36:22.919Z,100766.31
2022-11-05T18:39:25.797Z,100765.31
2022-11-05T18:42:28.308Z,100762.19
2022-11-05T18:45:31.730Z,100755.97
2022-11-05T18:48:34.223Z,100755.38
2022-11-05T18:51:38.410Z,100752.03
2022-11-05T18:54:40.895Z,100751.41
2022-11-05T18:57:43.546Z,100754.72
2022-11-05T19:00:46.034Z,100753.88
2022-11-05T19:03:49.418Z,100757.34
2022-11-05T19:06:53.315Z,100756.03
2022-11-05T19:09:55.863Z,100767.31
2022-11-05T19:12:58.333Z,100774.06
2022-11-05T19:16:00.829Z,100773.50
2022-11-05T19:19:05.769Z,100772.72
2022-11-05T19:22:10.296Z,100766.72
2022-11-05T19:25:12.785Z,100764.25
2022-11-05T19:28:15.558Z,100757.66
2022-11-05T19:31:21.141Z,100761.16
2022-11-05T19:34:23.609Z,100772.78
2022-11-05T19:37:27.399Z,100766.53
2022-11-05T19:40:29.874Z,100770.22
2022-11-05T19:43:32.337Z,100767.72
2022-11-05T19:46:35.179Z,100763.66
2022-11-05T19:49:37.778Z,100765.84
2022-11-05T19:52:41.562Z,100768.03
2022-11-05T19:55:45.002Z,100769.88
2022-11-05T19:58:47.867Z,100774.34
2022-11-05T20:01:50.484Z,100767.69
2022-11-05T20:04:53.183Z,100770.84
2022-11-05T20:07:57.455Z,100776.88
2022-11-05T20:10:59.992Z,100779.31
2022-11-05T20:14:02.465Z,100766.06
2022-11-05T20:17:04.961Z,100773.19
2022-11-05T20:20:08.747Z,100766.78
2022-11-05T20:23:12.722Z,100777.56
2022-11-05T20:26:15.872Z,100771.03
2022-11-05T20:29:18.423Z,100764.59
2022-11-05T20:32:20.929Z,100775.97
2022-11-05T20:35:24.666Z,100775.16
2022-11-05T20:38:28.542Z,100787.38
2022-11-05T20:41:32.127Z,100789.25
2022-11-05T20:44:34.604Z,100788.88
2022-11-05T20:47:37.475Z,100802.09
2022-11-05T20:50:41.520Z,100801.41
2022-11-05T20:53:46.162Z,100800.91
2022-11-05T20:56:48.722Z,100805.13
2022-11-05T20:59:51.200Z,100797.38
2022-11-05T21:02:53.784Z,100794.06
2022-11-05T21:05:59.874Z,100792.66
2022-11-05T21:09:05.867Z,100797.31
2022-11-05T21:12:11.159Z,100800.88
2022-11-05T21:15:13.941Z,100795.75
2022-11-05T21:18:16.601Z,100801.81
2022-11-05T21:21:20.471Z,100804.06
2022-11-05T21:24:24.360Z,100812.47
2022-11-05T21:27:26.836Z,100802.56
2022-11-05T21:30:29.291Z,100812.25
2022-11-05T21:33:33.228Z,100812.41
2022-11-05T21:36:35.712Z,100810.75
2022-11-05T21:39:39.541Z,100808.94
2022-11-05T21:42:42.104Z,100804.63
2022-11-05T21:45:46.043Z,100803.53
2022-11-05T21:48:48.939Z,100794.94
2022-11-05T21:52:09.406Z,100801.03
2022-11-05T21:55:31.181Z,100806.09
2022-11-05T21:58:51.581Z,100803.41
2022-11-05T22:02:01.232Z,100798.97
2022-11-05T22:05:05.505Z,100803.72
2022-11-05T22:08:08.070Z,100792.72
2022-11-05T22:11:12.044Z,100804.53
2022-11-05T22:14:14.491Z,100804.28
2022-11-05T22:17:17.057Z,100802.16
2022-11-05T22:20:20.013Z,100806.28
2022-11-05T22:23:22.586Z,100808.59
2022-11-05T22:26:26.422Z,100808.41
2022-11-05T22:29:29.761Z,100804.28
2022-11-05T22:32:32.359Z,100798.09
2022-11-05T22:35:34.876Z,100802.31
2022-11-05T22:38:37.630Z,100802.16
2022-11-05T22:41:42.028Z,100802.00
2022-11-05T22:44:44.581Z,100801.28
2022-11-05T22:47:47.136Z,100805.66
2022-11-05T22:50:49.628Z,100797.88
2022-11-05T22:53:52.445Z,100800.56
2022-11-05T22:56:56.426Z,100801.25
2022-11-05T22:59:58.901Z,100791.38
2022-11-05T23:03:02.703Z,100801.97
2022-11-05T23:06:28.029Z,100811.78
2022-11-05T23:09:50.402Z,100813.50
2022-11-05T23:12:55.856Z,100813.38
2022-11-05T23:16:16.136Z,100816.00
2022-11-05T23:19:36.519Z,100810.00
2022-11-05T23:22:56.771Z,100811.78
2022-11-05T23:26:00.354Z,100809.22
2022-11-05T23:29:04.521Z,100804.22
2022-11-05T23:32:24.955Z,100814.84
2022-11-05T23:35:45.276Z,100796.94
2022-11-05T23:38:47.739Z,100800.09
2022-11-05T23:42:08.146Z,100796.69
2022-11-05T23:45:29.885Z,100805.34
2022-11-05T23:48:34.299Z,100796.91
2022-11-05T23:51:36.766Z,100791.94
2022-11-05T23:54:39.333Z,100788.34
2022-11-05T23:57:41.869Z,100782.28
